createdAt,value
2019-02-26T00:00:45.003Z,23.50
2019-02-26T00:04:49.135Z,22.23
2019-02-26T00:08:56.057Z,22.17
2019-02-26T00:13:02.507Z,24.40
2019-02-26T00:17:10.550Z,27.93
2019-02-26T00:21:13.280Z,22.67
2019-02-26T00:25:19.882Z,21.73
2019-02-26T00:29:25.258Z,21.40
2019-02-26T00:33:29.934Z,20.87
2019-02-26T00:37:34.461Z,22.50
2019-02-26T00:41:40.284Z,22.77
2019-02-26T00:45:44.811Z,23.90
2019-02-26T00:49:51.011Z,33.93
2019-02-26T00:53:57.337Z,24.57
2019-02-26T00:58:03.266Z,31.90
2019-02-26T01:02:07.446Z,22.33
2019-02-26T01:06:11.741Z,23.90
2019-02-26T01:10:18.759Z,24.27
2019-02-26T01:14:24.555Z,22.93
2019-02-26T01:18:29.010Z,23.87
2019-02-26T01:22:35.255Z,21.83
2019-02-26T01:26:42.525Z,21.63
2019-02-26T01:30:45.574Z,18.70
2019-02-26T01:34:49.860Z,27.20
2019-02-26T01:38:54.142Z,20.17
2019-02-26T01:43:02.586Z,26.27
2019-02-26T01:47:04.742Z,31.10
2019-02-26T01:51:10.608Z,24.57
2019-02-26T01:55:16.149Z,27.07
2019-02-26T01:59:20.920Z,29.77
2019-02-26T02:03:26.124Z,23.27
2019-02-26T02:07:31.358Z,28.47
2019-02-26T02:11:36.229Z,26.53
2019-02-26T02:15:42.281Z,24.83
2019-02-26T02:19:47.602Z,25.17
2019-02-26T02:23:52.941Z,23.50
2019-02-26T02:27:59.356Z,25.63
2019-02-26T02:32:05.069Z,26.03
2019-02-26T02:36:11.525Z,27.53
2019-02-26T02:40:15.356Z,22.17
2019-02-26T02:44:20.597Z,27.50
2019-02-26T02:48:25.802Z,22.33
2019-02-26T02:52:32.295Z,22.93
2019-02-26T02:56:39.110Z,22.37
2019-02-26T03:00:42.138Z,22.00
2019-02-26T03:04:46.467Z,24.70
2019-02-26T03:08:51.516Z,25.77
2019-02-26T03:12:57.662Z,23.00
2019-02-26T03:17:02.637Z,24.73
2019-02-26T03:21:07.012Z,23.37
2019-02-26T03:25:14.288Z,30.63
2019-02-26T03:29:18.517Z,26.80
2019-02-26T03:33:22.986Z,26.00
2019-02-26T03:37:28.864Z,23.63
2019-02-26T03:41:33.322Z,23.27
2019-02-26T03:45:37.688Z,24.37
2019-02-26T03:49:42.377Z,19.40
2019-02-26T03:53:46.773Z,21.80
2019-02-26T03:57:54.375Z,26.87
2019-02-26T04:01:57.095Z,21.33
2019-02-26T04:06:03.124Z,26.90
2019-02-26T04:10:07.714Z,19.47
2019-02-26T04:14:12.608Z,21.70
2019-02-26T04:18:17.891Z,20.80
2019-02-26T04:22:39.123Z,23.13
2019-02-26T04:27:18.685Z,24.57
2019-02-26T04:31:35.915Z,23.37
2019-02-26T04:36:02.662Z,22.00
2019-02-26T04:40:43.937Z,26.83
2019-02-26T04:45:20.268Z,22.27
2019-02-26T04:49:27.050Z,22.00
2019-02-26T04:53:31.303Z,25.93
2019-02-26T04:57:39.464Z,24.73
2019-02-26T05:01:44.659Z,28.30
2019-02-26T05:05:51.264Z,27.00
2019-02-26T05:09:56.866Z,26.60
2019-02-26T05:14:00.823Z,26.47
2019-02-26T05:18:05.173Z,27.70
2019-02-26T05:22:09.513Z,28.10
2019-02-26T05:26:15.133Z,27.10
2019-02-26T05:30:22.324Z,31.30
2019-02-26T05:34:26.029Z,30.03
2019-02-26T05:38:32.471Z,31.53
2019-02-26T05:42:36.450Z,29.70
2019-02-26T05:46:47.512Z,26.73
2019-02-26T05:50:52.792Z,27.07
2019-02-26T05:54:57.062Z,27.03
2019-02-26T05:59:04.284Z,25.93
2019-02-26T06:03:09.699Z,32.57
2019-02-26T06:07:13.527Z,27.80
2019-02-26T06:11:18.011Z,34.40
2019-02-26T06:15:23.109Z,41.57
2019-02-26T06:19:44.947Z,32.00
2019-02-26T06:23:56.115Z,26.87
2019-02-26T06:28:04.807Z,31.13
2019-02-26T06:32:11.972Z,27.53
2019-02-26T06:36:17.940Z,31.50
2019-02-26T06:40:22.446Z,28.03
2019-02-26T06:44:26.993Z,27.73
2019-02-26T06:48:32.341Z,26.80
2019-02-26T06:52:56.617Z,28.13
2019-02-26T06:57:01.114Z,25.10
2019-02-26T07:01:07.175Z,28.57
2019-02-26T07:05:13.022Z,27.67
2019-02-26T07:09:18.212Z,27.13
2019-02-26T07:13:43.873Z,27.10
2019-02-26T07:18:10.703Z,24.27
2019-02-26T07:22:15.919Z,27.47
2019-02-26T07:26:20.816Z,36.73
2019-02-26T07:30:26.071Z,29.27
2019-02-26T07:34:30.626Z,28.80
2019-02-26T07:38:41.109Z,24.23
2019-02-26T07:42:41.932Z,21.80
2019-02-26T07:46:47.324Z,24.67
2019-02-26T07:50:51.752Z,25.80
2019-02-26T07:54:56.202Z,31.37
2019-02-26T07:59:03.817Z,27.33
2019-02-26T08:03:06.736Z,27.60
2019-02-26T08:07:11.116Z,27.03
2019-02-26T08:11:15.554Z,25.83
2019-02-26T08:15:20.077Z,25.67
2019-02-26T08:19:29.528Z,27.03
2019-02-26T08:23:30.562Z,25.30
2019-02-26T08:27:35.657Z,27.27
2019-02-26T08:31:44.618Z,23.37
2019-02-26T08:35:47.375Z,23.27
2019-02-26T08:39:51.870Z,29.93
2019-02-26T08:43:56.918Z,24.33
2019-02-26T08:48:02.486Z,25.17
2019-02-26T08:52:06.829Z,26.50
2019-02-26T08:56:11.347Z,28.77
2019-02-26T09:00:17.357Z,26.10
2019-02-26T09:04:23.751Z,23.97
2019-02-26T09:08:30.153Z,27.83
2019-02-26T09:12:33.945Z,27.47
2019-02-26T09:16:38.481Z,36.20
2019-02-26T09:20:42.747Z,22.67
2019-02-26T09:24:49.290Z,24.53
2019-02-26T09:28:55.422Z,23.07
2019-02-26T09:33:00.940Z,25.43
2019-02-26T09:37:07.245Z,27.17
2019-02-26T09:41:13.674Z,23.23
2019-02-26T09:45:20.402Z,29.60
2019-02-26T09:49:26.213Z,32.13
2019-02-26T09:53:30.631Z,31.70
2019-02-26T09:57:35.065Z,26.50
2019-02-26T10:01:40.749Z,27.80
2019-02-26T10:05:47.678Z,27.07
2019-02-26T10:09:51.718Z,24.37
2019-02-26T10:13:56.230Z,28.50
2019-02-26T10:18:01.923Z,27.20
2019-02-26T10:22:09.808Z,26.43
2019-02-26T10:26:12.757Z,26.63
2019-02-26T10:30:17.489Z,24.87
2019-02-26T10:34:25.614Z,28.47
2019-02-26T10:38:31.264Z,26.83
2019-02-26T10:42:39.748Z,27.17
2019-02-26T10:46:42.557Z,26.13
2019-02-26T10:50:49.209Z,29.80
2019-02-26T10:54:52.464Z,26.43
2019-02-26T10:58:58.770Z,28.77
2019-02-26T11:03:02.955Z,28.57
2019-02-26T11:07:11.006Z,27.73
2019-02-26T11:11:16.017Z,31.33
2019-02-26T11:15:21.521Z,30.33
2019-02-26T11:19:27.347Z,26.27
2019-02-26T11:23:33.958Z,28.33
2019-02-26T11:27:40.311Z,27.60
2019-02-26T11:31:44.692Z,27.33
2019-02-26T11:35:51.476Z,27.47
2019-02-26T11:39:57.588Z,26.50
2019-02-26T11:44:01.897Z,30.50
2019-02-26T11:48:08.687Z,26.60
2019-02-26T11:52:12.412Z,25.17
2019-02-26T11:56:17.687Z,24.70
2019-02-26T12:00:33.902Z,24.63
2019-02-26T12:04:36.062Z,21.53
2019-02-26T12:08:42.429Z,21.77
2019-02-26T12:12:48.505Z,20.20
2019-02-26T12:16:53.007Z,22.93
2019-02-26T12:20:57.354Z,22.03
2019-02-26T12:25:04.853Z,19.80
2019-02-26T12:29:07.900Z,23.10
2019-02-26T12:33:14.689Z,20.02
2019-02-26T12:37:18.580Z,19.70
2019-02-26T12:41:23.011Z,18.57
2019-02-26T12:45:28.447Z,18.85
2019-02-26T12:49:36.555Z,17.30
2019-02-26T12:57:52.892Z,17.42
2019-02-26T13:01:57.472Z,15.20
2019-02-26T13:06:05.168Z,16.23
2019-02-26T13:10:10.194Z,14.47
2019-02-26T13:14:14.553Z,14.33
2019-02-26T13:18:19.004Z,14.60
2019-02-26T13:22:23.371Z,15.65
2019-02-26T13:26:27.770Z,15.48
2019-02-26T13:30:32.116Z,19.30
2019-02-26T13:34:36.556Z,18.10
2019-02-26T13:38:45.047Z,20.67
2019-02-26T13:42:53.597Z,17.80
2019-02-26T13:46:53.073Z,16.23
2019-02-26T13:50:57.433Z,18.57
2019-02-26T13:55:01.890Z,18.10
2019-02-26T13:59:06.290Z,17.53
2019-02-26T14:03:10.710Z,20.43
2019-02-26T14:07:15.109Z,19.13
2019-02-26T14:11:19.530Z,17.13
2019-02-26T14:15:24.405Z,17.37
2019-02-26T14:19:29.046Z,18.67
2019-02-26T14:23:35.054Z,16.07
2019-02-26T14:27:39.501Z,13.60
2019-02-26T14:31:44.054Z,14.10
2019-02-26T14:35:48.471Z,16.00
2019-02-26T14:39:52.830Z,11.70
2019-02-26T14:43:57.314Z,13.00
2019-02-26T14:48:05.872Z,12.57
2019-02-26T14:52:10.182Z,12.43
2019-02-26T14:56:14.613Z,12.47
2019-02-26T15:00:23.988Z,13.37
2019-02-26T15:04:31.516Z,13.67
2019-02-26T15:08:35.940Z,11.63
2019-02-26T15:12:40.316Z,11.07
2019-02-26T15:16:45.268Z,11.37
2019-02-26T15:20:49.874Z,12.23
2019-02-26T15:24:54.353Z,13.93
2019-02-26T15:28:58.774Z,12.23
2019-02-26T15:33:10.870Z,11.87
2019-02-26T15:37:09.285Z,12.37
2019-02-26T15:41:13.910Z,12.80
2019-02-26T15:45:20.297Z,11.97
2019-02-26T15:49:25.033Z,15.53
2019-02-26T15:53:29.582Z,14.27
2019-02-26T15:57:33.941Z,16.67
2019-02-26T16:01:38.382Z,13.67
2019-02-26T16:05:42.813Z,14.00
2019-02-26T16:09:47.268Z,18.17
2019-02-26T16:13:51.681Z,11.97
2019-02-26T16:17:58.947Z,14.23
2019-02-26T16:22:02.327Z,14.80
2019-02-26T16:26:08.094Z,14.57
2019-02-26T16:30:16.305Z,14.50
2019-02-26T16:34:23.194Z,16.50
2019-02-26T16:38:27.604Z,14.67
2019-02-26T16:42:32.167Z,11.33
2019-02-26T16:46:36.654Z,15.17
2019-02-26T16:50:41.032Z,13.63
2019-02-26T16:54:45.590Z,12.70
2019-02-26T16:58:50.089Z,12.70
2019-02-26T17:02:54.579Z,14.13
2019-02-26T17:06:59.042Z,16.17
2019-02-26T17:11:03.452Z,13.80
2019-02-26T17:15:10.183Z,15.37
2019-02-26T17:19:15.468Z,13.90
2019-02-26T17:23:20.575Z,16.37
2019-02-26T17:27:24.945Z,16.57
2019-02-26T17:31:30.761Z,14.17
2019-02-26T17:35:35.589Z,15.77
2019-02-26T17:39:39.976Z,13.90
2019-02-26T17:43:44.247Z,24.43
2019-02-26T17:47:48.598Z,20.30
2019-02-26T17:51:52.924Z,21.63
2019-02-26T17:55:57.334Z,16.27
2019-02-26T18:00:01.726Z,18.10
2019-02-26T18:04:06.128Z,19.83
2019-02-26T18:08:10.538Z,16.83
2019-02-26T18:12:15.053Z,19.97
2019-02-26T18:16:19.482Z,17.83
2019-02-26T18:20:28.074Z,18.60
2019-02-26T18:24:30.074Z,14.00
2019-02-26T18:28:34.481Z,17.70
2019-02-26T18:32:38.915Z,18.07
2019-02-26T18:36:45.102Z,19.00
2019-02-26T18:40:49.331Z,15.80
2019-02-26T18:44:54.175Z,16.13
2019-02-26T18:48:58.962Z,16.67
2019-02-26T18:53:03.386Z,18.53
2019-02-26T18:57:11.281Z,15.30
2019-02-26T19:01:13.960Z,21.90
2019-02-26T19:05:20.413Z,19.20
2019-02-26T19:09:24.236Z,20.60
2019-02-26T19:13:28.684Z,18.67
2019-02-26T19:17:36.803Z,16.47
2019-02-26T19:21:41.335Z,19.73
2019-02-26T19:25:45.883Z,19.03
2019-02-26T19:29:50.433Z,20.43
2019-02-26T19:33:55.432Z,15.20
2019-02-26T19:38:00.342Z,16.67
2019-02-26T19:42:04.967Z,20.17
2019-02-26T19:46:09.429Z,20.70
2019-02-26T19:50:14.788Z,19.53
2019-02-26T19:54:19.414Z,20.73
2019-02-26T19:58:27.327Z,16.37
2019-02-26T20:02:32.259Z,20.00
2019-02-26T20:06:36.683Z,15.00
2019-02-26T20:10:47.848Z,20.17
2019-02-26T20:14:49.554Z,18.77
2019-02-26T20:18:54.078Z,18.33
2019-02-26T20:22:58.974Z,19.67
2019-02-26T20:27:03.631Z,18.93
2019-02-26T20:31:13.888Z,23.93
2019-02-26T20:35:16.017Z,16.90
2019-02-26T20:39:21.830Z,16.87
2019-02-26T20:43:26.203Z,19.20
2019-02-26T20:47:31.617Z,19.50
2019-02-26T20:51:36.665Z,19.37
2019-02-26T20:55:41.340Z,22.80
2019-02-26T20:59:46.025Z,23.57
2019-02-26T21:03:52.513Z,17.40
2019-02-26T21:07:58.769Z,21.77
2019-02-26T21:12:03.223Z,18.57
2019-02-26T21:16:07.804Z,21.87
2019-02-26T21:20:13.680Z,20.37
2019-02-26T21:24:18.140Z,17.50
2019-02-26T21:28:22.534Z,20.08
2019-02-26T21:32:30.176Z,20.27
2019-02-26T21:36:34.990Z,20.73
2019-02-26T21:40:39.391Z,21.97
2019-02-26T21:44:44.499Z,22.17
2019-02-26T21:48:49.506Z,22.37
2019-02-26T21:53:00.334Z,21.43
2019-02-26T21:57:05.416Z,24.80
2019-02-26T22:01:11.704Z,20.97
2019-02-26T22:05:16.497Z,27.73
2019-02-26T22:09:29.936Z,21.17
2019-02-26T22:13:34.000Z,21.97
2019-02-26T22:17:38.797Z,21.87
2019-02-26T22:21:52.178Z,22.20
2019-02-26T22:25:58.931Z,19.73
2019-02-26T22:30:03.299Z,21.77
2019-02-26T22:34:07.668Z,22.30
2019-02-26T22:38:15.072Z,20.40
2019-02-26T22:42:18.043Z,21.47
2019-02-26T22:46:25.281Z,21.87
2019-02-26T22:50:30.058Z,21.03
2019-02-26T22:54:35.022Z,21.60
2019-02-26T22:58:39.484Z,23.53
2019-02-26T23:02:43.725Z,24.10
2019-02-26T23:06:48.131Z,25.53
2019-02-26T23:10:57.180Z,23.13
2019-02-26T23:14:58.642Z,34.50
2019-02-26T23:19:03.834Z,23.60
2019-02-26T23:23:08.818Z,24.13
2019-02-26T23:27:15.121Z,27.57
2019-02-26T23:31:21.809Z,23.37
2019-02-26T23:35:26.213Z,25.20
2019-02-26T23:39:30.884Z,21.90
2019-02-26T23:43:35.230Z,24.83
2019-02-26T23:47:39.621Z,22.53
2019-02-26T23:51:44.036Z,23.60
2019-02-26T23:55:48.529Z,23.37
2019-02-26T23:59:52.872Z,19.77
